Accueil
METAR-TAF:

METAR-TAF

Aéroports :

Vitoria, Espagne

Aéroport de Vitoria-Gasteiz

latitude: 42-53N, longitude: 002-43W, altitude: 513 m

Observation

Le bulletin a été fait il y a 32 minutes, à 00:00 UTC
Vent 4 kt de nord/nord-ouest, variant entre ouest et nord-est
Température 3°C
Humidité 75%
Pression 1014 hPa
Visibilité 10 km ou plus
Nuages fragmentés à une hauteur de 2700 ft
Nuages fragmentés à une hauteur de 3800 ft
Ciel couvert à une hauteur de 5000 ft

METAR: LEVT 220000Z 33004KT 270V040 9999 BKN027 BKN038 OVC050 03/M01 Q1014

Heure: 01:32 (00:32 UTC)

Prévision

Le bulletin a été fait il y a 1 heure et 32 minutes, à 23:00 UTC
Prévision valable du 22 à 00 UTC au 22 à 24 UTC
Vent 6 kt de nord
Visibilité 10 km ou plus
Nuages épars à une hauteur de 2500 ft
Nuages épars à une hauteur de 4000 ft

TAF: LEVT 212300Z 2200/2224 35006KT 9999 SCT025 SCT040 TX05/2214Z TNM01/2205Z

Observations et prévisions météorologiques de plus de 4000 aéroports (messages METAR et TAF).

Les stations disponibles sont représentées par des disques jaunes et rouges sur la carte.

Passer la souris dessus pour voir le nom de la station.

Cliquer dessus pour voir les observations et prévisions météorologiques.

Pour changer de carte: cliquez sur les boutons verts avec une croix noire pour zoomer, sur le bouton vert avec un tiret pour effectuer un zoom arrière, ou sur les flèches vertes pour les cartes adjacentes.


METAR-TAF: